Time;durP1;ratioP1;P1;durP2;ratioP2;P2;SDS_P1;SDS_P2;PMS_P1;PMS_P2;Temp;Humidity;BMP_temperature;BMP_pressure;BME280_temperature;BME280_humidity;BME280_pressure;Samples;Min_cycle;Max_cycle;Signal;HPM_P1;HPM_P2
2021/07/20 00:01:30;;;;;;;34.83;17.73;;;10.20;99.90;;;;;;4963170;28;20395;-76
2021/07/20 00:03:57;;;;;;;34.10;17.45;;;10.30;99.90;;;;;;4958050;28;20384;-76
2021/07/20 00:06:44;;;;;;;32.45;17.75;;;10.30;99.90;;;;;;4943969;28;20052;-75
2021/07/20 00:09:11;;;;;;;30.60;17.65;;;10.20;99.90;;;;;;4944145;29;20047;-75
2021/07/20 00:11:38;;;;;;;32.75;18.30;;;10.20;99.90;;;;;;4943470;28;20142;-77
2021/07/20 00:14:05;;;;;;;35.58;18.25;;;10.20;99.90;;;;;;4944486;28;20035;-76
2021/07/20 00:16:32;;;;;;;28.95;16.95;;;10.20;99.90;;;;;;4937456;28;20507;-76
2021/07/20 00:18:59;;;;;;;34.42;16.63;;;10.20;99.90;;;;;;4932535;29;20483;-76
2021/07/20 00:21:26;;;;;;;36.63;16.73;;;10.40;99.90;;;;;;4947822;28;20035;-76
2021/07/20 00:23:53;;;;;;;25.35;15.20;;;10.40;99.90;;;;;;4955727;28;20051;-75
2021/07/20 00:26:19;;;;;;;25.15;14.27;;;10.40;99.90;;;;;;4959446;28;20047;-76
2021/07/20 00:28:47;;;;;;;23.38;13.80;;;10.30;99.90;;;;;;4968483;28;20507;-75
2021/07/20 00:31:14;;;;;;;24.67;14.15;;;10.20;99.90;;;;;;4949997;28;20055;-76
2021/07/20 00:33:41;;;;;;;22.55;14.48;;;10.20;99.90;;;;;;4959814;28;20043;-75
2021/07/20 00:36:09;;;;;;;25.20;14.48;;;10.20;99.90;;;;;;4931468;29;20182;-75
2021/07/20 00:38:36;;;;;;;27.55;16.75;;;10.20;99.90;;;;;;4946393;28;20433;-76
2021/07/20 00:41:03;;;;;;;24.17;14.20;;;10.20;99.90;;;;;;4946858;28;20046;-77
2021/07/20 00:43:30;;;;;;;26.98;15.00;;;10.30;99.90;;;;;;4965657;28;20090;-75
2021/07/20 00:45:57;;;;;;;29.20;15.32;;;10.40;99.90;;;;;;4962199;28;20040;-76
2021/07/20 00:48:26;;;;;;;21.95;14.18;;;10.60;99.90;;;;;;4946989;28;20043;-76
2021/07/20 00:50:53;;;;;;;26.50;14.75;;;10.70;99.90;;;;;;4947157;28;20059;-76
2021/07/20 00:53:21;;;;;;;27.45;14.82;;;10.70;99.90;;;;;;4931519;29;20059;-77
2021/07/20 00:56:15;;;;;;;24.85;15.23;;;10.60;99.90;;;;;;4961559;28;20127;-76
2021/07/20 00:58:43;;;;;;;27.13;15.77;;;10.60;99.90;;;;;;4949917;28;20049;-76
2021/07/20 01:01:12;;;;;;;25.95;14.18;;;10.70;99.90;;;;;;4950140;28;20058;-75
2021/07/20 01:03:44;;;;;;;24.95;15.35;;;10.70;99.90;;;;;;4966104;28;20082;-77
2021/07/20 01:06:15;;;;;;;25.35;15.45;;;10.70;99.90;;;;;;4948472;28;20050;-77
2021/07/20 01:08:43;;;;;;;28.23;15.63;;;10.70;99.90;;;;;;4950496;28;20109;-76
2021/07/20 01:11:10;;;;;;;25.20;12.85;;;10.70;99.90;;;;;;4933515;28;20155;-76
2021/07/20 01:13:38;;;;;;;31.85;15.10;;;10.80;99.90;;;;;;4948069;28;20108;-76
2021/07/20 01:16:06;;;;;;;22.83;13.85;;;10.90;99.90;;;;;;4943198;28;20090;-76
2021/07/20 01:18:37;;;;;;;23.00;14.15;;;11.00;99.90;;;;;;4947225;28;20464;-77
2021/07/20 01:21:09;;;;;;;24.85;13.63;;;10.90;99.90;;;;;;4914333;29;20070;-76
2021/07/20 01:23:39;;;;;;;24.85;14.75;;;11.10;99.90;;;;;;4931276;29;20121;-77
2021/07/20 01:26:06;;;;;;;20.88;13.63;;;11.10;99.90;;;;;;4939413;28;20558;-76
2021/07/20 01:28:37;;;;;;;25.48;15.50;;;11.20;99.90;;;;;;4959866;28;20574;-77
2021/07/20 01:31:12;;;;;;;22.90;13.93;;;11.10;99.90;;;;;;4966167;28;20080;-77
2021/07/20 01:33:43;;;;;;;21.75;14.00;;;11.20;99.90;;;;;;4960141;28;20059;-77
2021/07/20 01:36:15;;;;;;;26.83;16.65;;;11.30;99.90;;;;;;4948701;28;20086;-76
2021/07/20 01:38:47;;;;;;;22.73;15.65;;;11.40;99.90;;;;;;4946463;28;20055;-77
2021/07/20 01:41:16;;;;;;;29.83;16.50;;;11.30;99.90;;;;;;4956644;28;20061;-76
2021/07/20 01:43:49;;;;;;;25.15;16.02;;;11.50;99.90;;;;;;4949215;28;20051;-76
2021/07/20 01:46:20;;;;;;;24.98;16.45;;;11.60;99.90;;;;;;4945425;28;20051;-76
2021/07/20 01:48:51;;;;;;;25.70;15.85;;;11.40;99.90;;;;;;4939647;28;20081;-77
2021/07/20 01:51:21;;;;;;;29.45;16.27;;;11.50;99.90;;;;;;4949095;28;20606;-76
2021/07/20 01:53:50;;;;;;;31.42;17.80;;;11.60;99.90;;;;;;4949501;28;20150;-76
2021/07/20 01:56:20;;;;;;;36.28;17.48;;;11.60;99.90;;;;;;4946325;28;20471;-77
2021/07/20 01:58:47;;;;;;;30.80;17.05;;;11.70;99.90;;;;;;4965371;28;20050;-75
2021/07/20 02:01:44;;;;;;;25.20;16.60;;;11.70;99.90;;;;;;4954349;28;20373;-77
2021/07/20 02:10:00;;;;;;;31.70;17.80;;;11.70;99.90;;;;;;4949393;28;20055;-76
2021/07/20 02:12:33;;;;;;;28.90;16.10;;;11.60;99.90;;;;;;4963647;28;20097;-77
2021/07/20 02:15:05;;;;;;;32.95;17.48;;;11.50;99.90;;;;;;4949222;28;20054;-76
2021/07/20 02:17:47;;;;;;;25.40;16.98;;;11.70;99.90;;;;;;4945974;28;20051;-76
2021/07/20 02:20:22;;;;;;;28.17;16.05;;;11.80;99.90;;;;;;4913161;28;20170;-76
2021/07/20 02:22:56;;;;;;;26.63;17.25;;;12.00;99.90;;;;;;4930196;29;20054;-77
2021/07/20 02:25:26;;;;;;;27.02;16.02;;;11.90;99.90;;;;;;4952397;28;20050;-76
2021/07/20 02:27:56;;;;;;;27.30;15.43;;;11.80;99.90;;;;;;4962510;28;20067;-76
2021/07/20 02:30:33;;;;;;;27.52;15.57;;;11.80;99.90;;;;;;4964254;28;20118;-76
2021/07/20 02:33:02;;;;;;;26.73;16.83;;;11.90;99.90;;;;;;4930313;28;20047;-75
2021/07/20 02:35:30;;;;;;;29.00;15.52;;;12.10;99.90;;;;;;4928803;29;20050;-75
2021/07/20 02:38:01;;;;;;;26.23;16.13;;;12.10;99.90;;;;;;4934055;28;20049;-76
2021/07/20 02:40:32;;;;;;;28.50;17.02;;;12.20;99.90;;;;;;4946264;28;20246;-76
2021/07/20 02:43:01;;;;;;;26.02;16.08;;;12.10;99.90;;;;;;4947313;28;20055;-75
2021/07/20 02:45:34;;;;;;;28.00;16.20;;;12.30;99.90;;;;;;4947774;28;20043;-77
2021/07/20 02:48:06;;;;;;;;;;;12.30;99.90;;;;;;4931655;28;20077;-76
2021/07/20 02:50:34;;;;;;;28.88;16.15;;;12.20;99.90;;;;;;4930016;28;19921;-76
2021/07/20 02:53:12;;;;;;;25.75;15.45;;;12.10;99.90;;;;;;4947893;28;20058;-76
2021/07/20 02:55:51;;;;;;;22.42;15.40;;;12.20;99.90;;;;;;4960959;28;20169;-76
2021/07/20 02:58:18;;;;;;;24.70;14.63;;;12.10;99.90;;;;;;4963094;28;20092;-76
2021/07/20 03:00:47;;;;;;;26.40;15.10;;;12.10;99.90;;;;;;4947368;28;20072;-75
2021/07/20 03:03:14;;;;;;;24.27;14.65;;;12.10;99.90;;;;;;4947218;28;20492;-76
2021/07/20 03:05:48;;;;;;;24.90;15.63;;;12.10;99.90;;;;;;4946303;28;20047;-76
2021/07/20 03:08:29;;;;;;;25.65;15.45;;;12.10;99.90;;;;;;4947697;28;20274;-76
2021/07/20 03:11:14;;;;;;;24.10;15.65;;;12.30;99.90;;;;;;4907947;29;20056;-76
2021/07/20 03:13:47;;;;;;;23.40;15.10;;;12.30;99.90;;;;;;4925361;29;20063;-76
2021/07/20 03:16:16;;;;;;;24.17;15.80;;;12.20;99.90;;;;;;4916148;29;20518;-76
2021/07/20 03:18:46;;;;;;;27.23;16.15;;;12.20;99.90;;;;;;4943998;28;20531;-77
2021/07/20 03:21:15;;;;;;;26.30;15.02;;;12.10;99.90;;;;;;4924381;29;20157;-76
2021/07/20 03:23:44;;;;;;;25.08;15.60;;;12.30;99.90;;;;;;4928557;29;20627;-76
2021/07/20 03:26:13;;;;;;;27.98;15.63;;;12.20;99.90;;;;;;4937981;28;20345;-76
2021/07/20 03:28:42;;;;;;;28.77;15.73;;;12.10;99.90;;;;;;4963308;28;20069;-76
2021/07/20 03:31:15;;;;;;;24.93;14.93;;;12.20;99.90;;;;;;4963357;28;20082;-76
2021/07/20 03:33:45;;;;;;;26.77;16.33;;;12.30;99.90;;;;;;4939042;28;20055;-75
2021/07/20 03:36:26;;;;;;;31.67;16.48;;;12.30;99.90;;;;;;4913581;29;20540;-76
2021/07/20 03:38:54;;;;;;;23.30;15.23;;;12.10;99.90;;;;;;4926455;29;20152;-76
2021/07/20 03:41:26;;;;;;;26.40;16.67;;;12.10;99.90;;;;;;4926960;28;20166;-76
2021/07/20 03:43:55;;;;;;;28.63;16.65;;;12.30;99.90;;;;;;4962359;28;20444;-76
2021/07/20 03:46:25;;;;;;;31.42;17.75;;;12.30;99.90;;;;;;4953993;28;20035;-76
2021/07/20 03:48:52;;;;;;;26.70;16.55;;;12.40;99.90;;;;;;4927434;29;20070;-76
2021/07/20 03:51:31;;;;;;;34.53;19.00;;;12.40;99.90;;;;;;4961227;28;20046;-77
2021/07/20 03:54:00;;;;;;;31.70;16.98;;;12.20;99.90;;;;;;4946627;28;20332;-76
2021/07/20 03:56:30;;;;;;;25.17;16.02;;;12.20;99.90;;;;;;4962207;28;20050;-76
2021/07/20 03:58:59;;;;;;;29.88;18.10;;;12.30;99.90;;;;;;4960557;28;20106;-76
2021/07/20 04:01:32;;;;;;;24.67;16.05;;;12.30;99.90;;;;;;4946108;28;20141;-77
2021/07/20 04:04:00;;;;;;;25.77;16.40;;;12.40;99.90;;;;;;4947185;28;20566;-75
2021/07/20 04:06:47;;;;;;;27.23;15.82;;;12.40;99.90;;;;;;4961868;28;20119;-77
2021/07/20 04:09:28;;;;;;;25.33;15.93;;;12.60;99.90;;;;;;4962455;28;20062;-77
2021/07/20 04:12:22;;;;;;;29.00;16.45;;;12.70;99.90;;;;;;4945807;28;20281;-76
2021/07/20 04:15:15;;;;;;;27.10;16.65;;;12.90;99.90;;;;;;4952533;28;20087;-77
2021/07/20 04:17:58;;;;;;;23.92;14.95;;;12.90;99.90;;;;;;4927155;28;20043;-75
2021/07/20 04:20:26;;;;;;;25.65;16.63;;;12.90;99.90;;;;;;4960624;28;20073;-76
2021/07/20 04:22:53;;;;;;;26.38;15.45;;;12.80;99.90;;;;;;4927931;28;20078;-77
2021/07/20 04:25:22;;;;;;;27.00;15.98;;;12.80;99.90;;;;;;4932958;28;20043;-77
2021/07/20 04:27:57;;;;;;;25.88;15.52;;;12.70;99.90;;;;;;4959947;28;20050;-77
2021/07/20 04:30:24;;;;;;;27.98;15.88;;;12.80;99.90;;;;;;4943848;28;20150;-76
2021/07/20 04:32:54;;;;;;;27.48;16.35;;;12.90;99.90;;;;;;4960169;28;20054;-75
2021/07/20 04:35:28;;;;;;;28.38;15.43;;;12.90;99.90;;;;;;4942514;28;20058;-77
2021/07/20 04:38:04;;;;;;;29.67;15.70;;;12.80;99.90;;;;;;4926301;29;20168;-76
2021/07/20 04:40:34;;;;;;;24.10;15.13;;;13.00;99.90;;;;;;4942509;28;20070;-76
2021/07/20 04:43:01;;;;;;;24.25;14.43;;;13.20;99.90;;;;;;4954262;28;20055;-75
2021/07/20 04:45:31;;;;;;;21.60;15.57;;;13.20;99.90;;;;;;4960671;28;20066;-75
2021/07/20 04:48:06;;;;;;;22.10;14.60;;;13.30;99.90;;;;;;4943530;28;20456;-76
2021/07/20 04:50:43;;;;;;;21.10;14.15;;;13.30;99.90;;;;;;4927884;28;20488;-76
2021/07/20 04:53:13;;;;;;;24.13;15.57;;;13.40;99.90;;;;;;4952656;28;20043;-75
2021/07/20 04:55:45;;;;;;;25.30;15.77;;;13.40;99.90;;;;;;4942784;28;20047;-77
2021/07/20 04:58:14;;;;;;;22.80;14.68;;;13.40;99.90;;;;;;4942431;28;20415;-76
2021/07/20 05:00:44;;;;;;;26.30;15.10;;;13.40;99.90;;;;;;4955995;28;20114;-76
2021/07/20 05:03:14;;;;;;;26.23;15.00;;;13.40;99.90;;;;;;4947424;28;20047;-76
2021/07/20 05:05:42;;;;;;;24.95;14.85;;;13.50;99.90;;;;;;4962193;28;20527;-76
2021/07/20 05:08:14;;;;;;;24.58;15.90;;;13.60;99.90;;;;;;4948379;28;20039;-76
2021/07/20 05:10:50;;;;;;;25.73;15.73;;;13.70;99.90;;;;;;4965818;28;20105;-76
2021/07/20 05:13:22;;;;;;;25.05;15.43;;;13.60;99.90;;;;;;4947828;28;20157;-76
2021/07/20 05:15:52;;;;;;;28.20;15.73;;;13.50;99.90;;;;;;4942073;28;20135;-76
2021/07/20 05:18:25;;;;;;;26.15;16.80;;;13.50;99.90;;;;;;4929178;29;20337;-76
2021/07/20 05:20:58;;;;;;;22.88;15.40;;;13.70;99.90;;;;;;4928677;29;20050;-77
2021/07/20 05:23:32;;;;;;;28.15;14.75;;;13.80;99.90;;;;;;4915529;28;20047;-77
2021/07/20 05:26:15;;;;;;;23.52;13.80;;;13.80;99.90;;;;;;4949273;28;20146;-77
2021/07/20 05:28:43;;;;;;;26.80;15.60;;;13.90;99.90;;;;;;4943998;28;20132;-77
2021/07/20 05:31:12;;;;;;;24.90;15.75;;;14.10;99.90;;;;;;4944719;28;20047;-77
2021/07/20 05:33:42;;;;;;;33.97;16.20;;;14.20;99.90;;;;;;4949446;28;20447;-77
2021/07/20 05:36:15;;;;;;;23.33;14.85;;;14.30;99.90;;;;;;4954829;28;20047;-77
2021/07/20 05:38:42;;;;;;;28.45;14.82;;;14.40;99.90;;;;;;4944423;28;20051;-77
2021/07/20 05:41:28;;;;;;;;;;;14.70;99.90;;;;;;4944901;28;20051;-76
2021/07/20 05:43:56;;;;;;;22.95;14.25;;;14.80;99.90;;;;;;4938014;28;20012;-76
2021/07/20 05:46:24;;;;;;;25.77;14.38;;;14.80;99.90;;;;;;4949759;28;20110;-77
2021/07/20 05:48:57;;;;;;;20.58;13.00;;;14.90;99.90;;;;;;4947265;28;20051;-76
2021/07/20 05:51:26;;;;;;;17.10;11.95;;;14.80;99.90;;;;;;4936925;29;20078;-77
2021/07/20 05:54:16;;;;;;;21.80;13.07;;;14.90;99.90;;;;;;4945828;28;20476;-77
2021/07/20 05:57:02;;;;;;;16.92;11.75;;;15.00;99.90;;;;;;4961738;28;20655;-77
2021/07/20 05:59:42;;;;;;;18.17;12.55;;;15.00;99.90;;;;;;4944637;28;20065;-77
2021/07/20 06:02:31;;;;;;;17.05;12.00;;;15.00;99.90;;;;;;4958238;28;20176;-77
2021/07/20 06:05:01;;;;;;;21.52;11.50;;;15.00;99.90;;;;;;4957884;28;20038;-77
2021/07/20 06:07:30;;;;;;;19.52;12.50;;;15.20;99.90;;;;;;4947275;28;20425;-76
2021/07/20 06:09:57;;;;;;;19.23;11.70;;;15.30;99.90;;;;;;4963228;28;20476;-76
2021/07/20 06:12:27;;;;;;;15.25;11.60;;;15.50;99.90;;;;;;4946638;28;20078;-77
2021/07/20 06:14:55;;;;;;;19.00;12.27;;;15.70;99.90;;;;;;4940307;28;20075;-76
2021/07/20 06:17:23;;;;;;;15.90;13.55;;;15.60;99.90;;;;;;4942716;28;20087;-75
2021/07/20 06:19:58;;;;;;;16.63;13.40;;;15.50;99.90;;;;;;4944411;28;20217;-76
2021/07/20 06:22:30;;;;;;;19.02;14.25;;;15.40;99.90;;;;;;4943900;28;20126;-76
2021/07/20 06:25:02;;;;;;;17.85;15.63;;;15.30;99.90;;;;;;4931700;28;20094;-76
2021/07/20 06:27:30;;;;;;;16.92;14.90;;;15.20;99.90;;;;;;4941638;28;20814;-77
2021/07/20 06:29:59;;;;;;;17.60;14.18;;;14.90;99.90;;;;;;4944328;29;20051;-76
2021/07/20 06:32:30;;;;;;;18.55;14.00;;;14.90;99.90;;;;;;4950703;28;20052;-77
2021/07/20 06:34:57;;;;;;;17.27;14.40;;;15.10;99.90;;;;;;4945297;28;20488;-76
2021/07/20 06:37:27;;;;;;;17.65;14.80;;;15.40;99.90;;;;;;4927529;29;20325;-76
2021/07/20 06:40:17;;;;;;;18.02;15.68;;;15.70;99.90;;;;;;4940005;28;20172;-79
2021/07/20 06:42:45;;;;;;;15.55;13.93;;;15.60;99.90;;;;;;4952869;28;20050;-74
2021/07/20 06:45:13;;;;;;;15.65;14.15;;;15.70;99.90;;;;;;4958528;28;20138;-74
2021/07/20 06:47:45;;;;;;;17.48;14.25;;;15.70;99.90;;;;;;4925035;29;20122;-76
2021/07/20 06:50:17;;;;;;;17.17;13.20;;;15.80;99.90;;;;;;4946847;28;20574;-75
2021/07/20 06:52:48;;;;;;;16.05;13.45;;;16.10;99.90;;;;;;4927913;29;20077;-75
2021/07/20 06:55:16;;;;;;;15.88;14.18;;;16.00;99.90;;;;;;4946437;28;20142;-75
2021/07/20 06:57:46;;;;;;;16.38;13.88;;;16.20;99.90;;;;;;4962121;28;20753;-76
2021/07/20 07:00:17;;;;;;;17.58;13.18;;;16.40;99.90;;;;;;4961833;28;20157;-75
2021/07/20 07:02:49;;;;;;;15.38;12.45;;;16.20;99.90;;;;;;4925988;29;20126;-74
2021/07/20 07:05:17;;;;;;;14.13;12.73;;;15.80;99.90;;;;;;4923199;28;20051;-75
2021/07/20 07:07:48;;;;;;;15.77;13.20;;;15.70;99.90;;;;;;4926723;29;20408;-75
2021/07/20 07:10:18;;;;;;;15.63;14.13;;;15.90;99.90;;;;;;4924194;28;20055;-75
2021/07/20 07:12:47;;;;;;;15.43;13.98;;;16.40;99.90;;;;;;4945069;28;20424;-75
2021/07/20 07:15:16;;;;;;;16.38;12.73;;;16.80;99.90;;;;;;4946137;28;20086;-75
2021/07/20 07:17:47;;;;;;;15.75;14.35;;;16.90;99.90;;;;;;4928154;29;20057;-74
2021/07/20 07:20:16;;;;;;;16.27;14.68;;;16.30;99.90;;;;;;4944548;28;20055;-75
2021/07/20 07:22:44;;;;;;;15.93;14.25;;;16.20;99.90;;;;;;4941958;28;20668;-75
2021/07/20 07:25:12;;;;;;;16.90;14.40;;;16.60;99.90;;;;;;4946900;28;20047;-75
2021/07/20 07:27:40;;;;;;;18.25;15.38;;;17.00;99.90;;;;;;4944661;28;20150;-75
2021/07/20 07:30:08;;;;;;;16.88;15.27;;;17.40;99.90;;;;;;4976884;28;20066;-76
2021/07/20 07:32:37;;;;;;;18.25;16.30;;;17.60;99.90;;;;;;4955164;28;20082;-75
2021/07/20 07:35:05;;;;;;;16.80;14.75;;;17.00;99.90;;;;;;4949101;28;20063;-76
2021/07/20 07:37:34;;;;;;;17.25;15.38;;;17.00;99.90;;;;;;4952525;28;20074;-76
2021/07/20 07:40:05;;;;;;;16.98;14.82;;;17.30;99.90;;;;;;4944979;29;20047;-76
2021/07/20 07:42:34;;;;;;;16.00;14.50;;;17.50;99.90;;;;;;4949939;28;20050;-76
2021/07/20 07:45:04;;;;;;;16.27;14.65;;;17.80;99.90;;;;;;4962066;28;20062;-75
2021/07/20 07:47:33;;;;;;;16.85;15.20;;;17.90;99.90;;;;;;4935236;28;20571;-76
2021/07/20 07:50:01;;;;;;;17.50;15.85;;;17.70;99.90;;;;;;4928236;29;20429;-75
2021/07/20 07:52:28;;;;;;;16.38;14.98;;;17.70;99.90;;;;;;4948108;28;20141;-76
2021/07/20 07:54:55;;;;;;;18.48;16.55;;;17.70;99.90;;;;;;4947362;28;20046;-76
2021/07/20 07:57:23;;;;;;;18.15;16.30;;;17.70;99.90;;;;;;4938201;23;20047;-73
2021/07/20 07:59:54;;;;;;;18.63;16.45;;;17.90;99.90;;;;;;4944571;29;20471;-73
2021/07/20 08:02:30;;;;;;;18.15;16.45;;;17.90;99.90;;;;;;4959184;28;20518;-75
2021/07/20 08:05:00;;;;;;;17.38;15.77;;;18.10;99.90;;;;;;4969274;28;20062;-74
2021/07/20 08:07:29;;;;;;;18.33;16.55;;;18.30;99.90;;;;;;4961122;28;20051;-75
2021/07/20 08:09:57;;;;;;;17.20;15.70;;;18.50;99.90;;;;;;4964723;28;20507;-73
2021/07/20 08:12:28;;;;;;;18.52;16.73;;;18.60;99.90;;;;;;4965144;28;20467;-73
2021/07/20 08:14:55;;;;;;;17.80;16.25;;;18.20;99.90;;;;;;4964868;28;20526;-74
2021/07/20 08:17:25;;;;;;;17.63;16.08;;;17.90;99.90;;;;;;4953965;28;20047;-74
2021/07/20 08:19:53;;;;;;;18.45;16.65;;;17.90;99.90;;;;;;4950113;28;20073;-74
2021/07/20 08:22:22;;;;;;;17.92;16.13;;;18.10;99.90;;;;;;4945291;28;20081;-74
2021/07/20 08:25:09;;;;;;;18.50;16.30;;;18.10;99.90;;;;;;4929426;29;20094;-75
2021/07/20 08:27:42;;;;;;;18.33;16.83;;;18.10;99.90;;;;;;4926484;29;20059;-75
2021/07/20 08:30:09;;;;;;;17.02;15.73;;;18.20;99.90;;;;;;4929249;29;20056;-74
2021/07/20 08:32:48;;;;;;;18.83;17.25;;;18.20;99.90;;;;;;4947107;28;20094;-75
2021/07/20 08:35:20;;;;;;;16.98;15.27;;;17.90;99.90;;;;;;4953463;28;20645;-74
2021/07/20 08:37:55;;;;;;;21.67;18.25;;;17.80;99.90;;;;;;4932794;28;20069;-74
2021/07/20 08:41:10;;;;;;;17.95;16.35;;;17.70;99.90;;;;;;4961713;28;20098;-74
2021/07/20 08:44:14;;;;;;;18.63;16.80;;;17.80;99.90;;;;;;4960527;28;20071;-75
2021/07/20 08:46:48;;;;;;;17.17;15.60;;;17.90;99.90;;;;;;4946559;28;20043;-75
2021/07/20 08:49:51;;;;;;;17.67;15.93;;;18.20;99.90;;;;;;4950042;28;20059;-74
2021/07/20 08:52:35;;;;;;;17.48;15.68;;;18.20;99.90;;;;;;4949708;28;20074;-74
2021/07/20 08:55:12;;;;;;;17.33;15.65;;;18.20;99.90;;;;;;4968470;28;20089;-74
2021/07/20 08:57:57;;;;;;;16.23;14.82;;;18.30;99.90;;;;;;4982613;28;20088;-75
2021/07/20 09:00:26;;;;;;;;;;;18.20;99.90;;;;;;4968496;28;20142;-75
2021/07/20 09:03:29;;;;;;;16.55;14.95;;;18.20;99.90;;;;;;4965093;28;20005;-73
2021/07/20 09:06:05;;;;;;;17.70;15.90;;;18.10;99.90;;;;;;4958778;28;20895;-75
2021/07/20 09:09:04;;;;;;;16.85;15.45;;;18.00;99.90;;;;;;4949396;28;20544;-74
2021/07/20 09:11:50;;;;;;;17.02;15.38;;;17.90;99.90;;;;;;4934498;29;20137;-75
2021/07/20 09:14:35;;;;;;;17.63;15.00;;;17.90;99.90;;;;;;4962659;28;20113;-74
2021/07/20 09:17:22;;;;;;;19.35;15.52;;;18.00;99.90;;;;;;4938336;28;20046;-75
2021/07/20 09:20:06;;;;;;;16.25;14.57;;;18.20;99.90;;;;;;4956549;28;20054;-74
2021/07/20 09:22:54;;;;;;;15.43;13.98;;;18.30;99.90;;;;;;4968272;28;20156;-74
2021/07/20 09:25:33;;;;;;;18.67;16.45;;;18.40;99.90;;;;;;4951023;28;20059;-73
2021/07/20 09:28:13;;;;;;;17.77;16.17;;;18.50;99.90;;;;;;4931589;29;20052;-74
2021/07/20 09:30:46;;;;;;;17.63;16.25;;;18.90;99.90;;;;;;4947664;28;20199;-74
2021/07/20 09:33:29;;;;;;;17.85;16.15;;;19.50;99.90;;;;;;4948620;29;20074;-73
2021/07/20 09:36:00;;;;;;;16.42;15.05;;;20.00;99.90;;;;;;4971085;28;20051;-73
2021/07/20 09:39:00;;;;;;;17.08;15.57;;;20.20;99.90;;;;;;4966970;28;20397;-74
2021/07/20 09:41:49;;;;;;;16.50;15.10;;;20.40;99.90;;;;;;4948484;28;20081;-76
2021/07/20 09:44:31;;;;;;;16.23;14.82;;;20.10;99.90;;;;;;4968253;28;20082;-75
2021/07/20 09:46:58;;;;;;;16.95;15.43;;;19.80;99.90;;;;;;4958379;28;20721;-75
2021/07/20 09:49:52;;;;;;;17.52;15.55;;;19.70;99.90;;;;;;4954359;28;20138;-73
2021/07/20 09:52:40;;;;;;;17.30;15.57;;;19.50;99.90;;;;;;4964954;28;20280;-75
2021/07/20 09:55:36;;;;;;;17.75;15.98;;;19.40;99.90;;;;;;4942668;28;20059;-75
2021/07/20 09:58:31;;;;;;;17.98;16.35;;;19.10;99.90;;;;;;4952260;28;20122;-73
2021/07/20 10:01:04;;;;;;;18.88;16.75;;;19.10;99.90;;;;;;4968131;28;20058;-74
2021/07/20 10:03:38;;;;;;;17.52;15.95;;;19.10;99.90;;;;;;4967899;28;20392;-75
2021/07/20 10:06:27;;;;;;;18.23;15.57;;;19.10;99.90;;;;;;4947856;28;20479;-76
2021/07/20 10:09:04;;;;;;;17.33;15.73;;;19.20;99.90;;;;;;4931009;29;20405;-74
2021/07/20 10:11:53;;;;;;;18.77;17.08;;;19.40;99.90;;;;;;4930679;28;20079;-75
2021/07/20 10:14:32;;;;;;;18.13;16.48;;;19.50;99.90;;;;;;4912642;29;20540;-75
2021/07/20 10:17:02;;;;;;;18.77;17.08;;;19.60;99.90;;;;;;4950766;28;20479;-74
2021/07/20 10:19:53;;;;;;;16.42;15.10;;;19.90;99.90;;;;;;4948150;29;20051;-74
2021/07/20 10:22:34;;;;;;;16.50;15.00;;;19.80;99.90;;;;;;4963300;28;20240;-73
2021/07/20 10:25:13;;;;;;;16.65;15.38;;;19.50;99.90;;;;;;4951621;28;20121;-74
2021/07/20 10:27:56;;;;;;;15.18;13.98;;;19.40;99.90;;;;;;4966467;28;20058;-71
2021/07/20 10:30:25;;;;;;;16.08;14.48;;;19.50;99.90;;;;;;4966498;28;20101;-73
2021/07/20 10:33:20;;;;;;;15.90;14.40;;;19.40;99.90;;;;;;4966532;28;20456;-73
2021/07/20 10:36:11;;;;;;;15.45;13.90;;;19.60;99.90;;;;;;4951624;28;20051;-73
2021/07/20 10:38:50;;;;;;;14.65;13.27;;;19.70;99.90;;;;;;4968906;28;20535;-73
2021/07/20 10:41:24;;;;;;;15.43;14.00;;;19.80;99.90;;;;;;4944835;28;20504;-74
2021/07/20 10:44:29;;;;;;;14.45;13.43;;;19.80;99.90;;;;;;4950174;28;20083;-72
2021/07/20 10:47:01;;;;;;;15.57;14.35;;;19.60;99.90;;;;;;4953839;28;20053;-72
2021/07/20 10:49:51;;;;;;;15.50;14.05;;;19.70;99.90;;;;;;4958820;28;20046;-73
2021/07/20 10:52:27;;;;;;;16.23;14.80;;;19.80;99.90;;;;;;4965688;28;20054;-73
2021/07/20 10:55:08;;;;;;;15.52;14.13;;;19.70;99.90;;;;;;4938049;29;20507;-75
2021/07/20 10:57:49;;;;;;;16.58;15.27;;;19.30;99.90;;;;;;4945617;28;20090;-72
2021/07/20 11:00:18;;;;;;;15.10;13.90;;;19.50;99.90;;;;;;4957671;28;20517;-74
2021/07/20 11:02:57;;;;;;;15.20;13.88;;;19.50;99.90;;;;;;4965867;28;20051;-73
2021/07/20 11:05:27;;;;;;;15.35;13.75;;;19.60;99.90;;;;;;4956430;28;20184;-74
2021/07/20 11:08:06;;;;;;;15.20;13.95;;;19.80;99.90;;;;;;4945773;28;20051;-74
2021/07/20 11:10:37;;;;;;;16.92;15.50;;;19.80;99.90;;;;;;4966471;28;20046;-74
2021/07/20 11:13:07;;;;;;;15.77;14.35;;;19.80;99.90;;;;;;4965023;28;20062;-73
2021/07/20 11:15:37;;;;;;;16.33;14.88;;;19.80;99.90;;;;;;4963455;28;20067;-73
2021/07/20 11:18:10;;;;;;;16.10;14.80;;;19.80;99.90;;;;;;4943385;29;20047;-73
2021/07/20 11:20:37;;;;;;;16.40;14.77;;;19.90;99.90;;;;;;4937561;28;20105;-73
2021/07/20 11:23:05;;;;;;;14.68;13.43;;;19.90;99.90;;;;;;4967035;28;20137;-72
2021/07/20 11:25:34;;;;;;;15.18;13.88;;;19.90;99.90;;;;;;4947067;28;20051;-73
2021/07/20 11:28:02;;;;;;;16.65;13.70;;;20.10;99.90;;;;;;4946908;28;20063;-73
2021/07/20 11:30:32;;;;;;;15.25;13.70;;;19.90;99.90;;;;;;4947565;28;20071;-73
2021/07/20 11:33:15;;;;;;;15.43;14.05;;;19.60;99.90;;;;;;4964180;28;20625;-72
2021/07/20 11:35:55;;;;;;;15.07;13.77;;;19.60;99.90;;;;;;4955218;28;20055;-73
2021/07/20 11:38:26;;;;;;;14.57;13.32;;;19.40;99.90;;;;;;4966348;28;20058;-72
2021/07/20 11:41:16;;;;;;;14.55;13.07;;;19.80;99.90;;;;;;4965380;28;20127;-72
2021/07/20 11:43:48;;;;;;;13.20;12.20;;;20.10;99.90;;;;;;4962113;28;20087;-73
2021/07/20 11:46:20;;;;;;;14.00;12.90;;;20.10;99.90;;;;;;4959396;28;20148;-74
2021/07/20 11:49:01;;;;;;;13.50;12.40;;;19.90;99.90;;;;;;4961489;28;20057;-72
2021/07/20 11:51:41;;;;;;;14.30;13.00;;;19.40;99.90;;;;;;4965339;28;20054;-75
2021/07/20 11:54:18;;;;;;;12.48;11.50;;;19.30;99.90;;;;;;4965554;28;20054;-74
2021/07/20 11:57:22;;;;;;;12.82;11.88;;;19.40;99.90;;;;;;4947298;28;20062;-73
2021/07/20 12:00:13;;;;;;;11.85;11.00;;;19.40;99.90;;;;;;4949094;28;20050;-73
2021/07/20 12:03:17;;;;;;;12.93;12.02;;;19.50;99.90;;;;;;4969337;28;20448;-73
2021/07/20 12:06:46;;;;;;;13.18;12.15;;;19.60;99.90;;;;;;4955929;28;20063;-74
2021/07/20 12:09:25;;;;;;;12.35;11.55;;;19.40;99.90;;;;;;4885704;29;20116;-72
2021/07/20 12:11:56;;;;;;;12.05;11.25;;;19.20;99.90;;;;;;4874272;29;20771;-74
2021/07/20 12:14:25;;;;;;;12.80;11.90;;;19.60;99.90;;;;;;4952286;28;20393;-73
2021/07/20 12:16:54;;;;;;;14.23;13.02;;;19.80;99.90;;;;;;4956061;28;20051;-71
2021/07/20 12:19:30;;;;;;;13.82;12.70;;;19.70;99.90;;;;;;4956139;28;20059;-72
2021/07/20 12:22:04;;;;;;;14.02;12.95;;;19.80;99.90;;;;;;4951651;28;20183;-73
2021/07/20 12:24:33;;;;;;;15.45;13.93;;;19.90;99.90;;;;;;4948402;29;20078;-73
2021/07/20 12:27:03;;;;;;;14.45;13.38;;;20.10;99.90;;;;;;4949446;28;20106;-74
2021/07/20 12:29:30;;;;;;;14.15;13.15;;;20.20;99.90;;;;;;4951891;28;20051;-74
2021/07/20 12:31:59;;;;;;;14.30;13.20;;;20.40;99.90;;;;;;4948250;28;20066;-74
2021/07/20 12:34:27;;;;;;;14.05;13.00;;;20.40;99.90;;;;;;4954502;28;20571;-73
2021/07/20 12:36:55;;;;;;;13.82;12.57;;;20.30;99.90;;;;;;4941010;28;20055;-72
2021/07/20 12:39:23;;;;;;;14.25;13.15;;;20.40;99.90;;;;;;4949936;28;20736;-72
2021/07/20 12:41:53;;;;;;;14.27;13.18;;;20.50;99.90;;;;;;4949765;28;20543;-73
2021/07/20 12:44:35;;;;;;;14.40;13.30;;;20.50;99.90;;;;;;4968331;28;20050;-73
2021/07/20 12:47:11;;;;;;;14.05;12.95;;;20.20;99.90;;;;;;4931515;29;20121;-73
2021/07/20 12:49:43;;;;;;;13.30;12.38;;;20.30;99.90;;;;;;4956493;28;20094;-75
2021/07/20 12:52:13;;;;;;;13.95;12.57;;;20.40;99.90;;;;;;4950760;28;20101;-74
2021/07/20 12:54:43;;;;;;;13.30;12.27;;;20.60;99.90;;;;;;4967531;28;20422;-73
2021/07/20 12:57:12;;;;;;;13.63;12.52;;;20.70;99.90;;;;;;4967569;28;20124;-74
2021/07/20 13:00:00;;;;;;;12.90;12.02;;;20.50;99.90;;;;;;4953007;28;20047;-73
2021/07/20 13:02:29;;;;;;;12.55;11.73;;;20.50;99.90;;;;;;4964810;28;20046;-75
2021/07/20 13:04:56;;;;;;;12.10;11.40;;;20.50;99.90;;;;;;4959014;28;20142;-73
2021/07/20 13:07:24;;;;;;;13.48;12.45;;;20.40;99.90;;;;;;4954587;28;20078;-73
2021/07/20 13:09:53;;;;;;;13.40;12.40;;;19.80;99.90;;;;;;4949400;28;20093;-72